createdAt,value
2019-04-05T09:50:02.250Z,0.0000
2019-04-05T09:50:05.045Z,6.8514
2019-04-05T09:50:07.812Z,6.7622
2019-04-05T09:50:10.599Z,6.7670
2019-04-05T09:50:13.382Z,6.5883
2019-04-05T09:50:16.188Z,6.2195
2019-04-05T09:50:18.982Z,6.0755
2019-04-05T09:50:21.870Z,6.2802
2019-04-05T09:50:24.758Z,6.6343
2019-04-05T09:50:27.557Z,6.5439
2019-04-05T09:50:30.338Z,6.4063
2019-04-05T09:50:33.112Z,5.9592
2019-04-05T09:50:35.947Z,5.7422
2019-04-05T09:50:38.771Z,5.3709
2019-04-05T09:52:07.141Z,0.0000
2019-04-05T09:52:09.362Z,5.3291
2019-04-05T09:52:11.338Z,5.4452
2019-04-05T09:52:13.332Z,5.4213
2019-04-05T09:52:15.348Z,5.2636
2019-04-05T09:52:17.342Z,5.0672
2019-04-05T09:52:19.474Z,5.1421
2019-04-05T09:52:22.402Z,5.1993
2019-04-05T09:52:24.369Z,5.1300
2019-04-05T09:52:26.366Z,5.2095
2019-04-05T09:52:28.370Z,5.1707
2019-04-05T09:52:31.360Z,5.2488
2019-04-05T09:52:33.398Z,5.8219
2019-04-05T09:52:35.357Z,5.8976
2019-04-05T09:52:39.975Z,6.5711
2019-04-05T09:52:41.333Z,7.2871
2019-04-05T09:52:44.349Z,7.3559
2019-04-05T09:52:46.353Z,7.4605
2019-04-05T09:52:48.340Z,7.5092
2019-04-05T09:52:50.354Z,7.5071
2019-04-05T09:52:52.566Z,7.3855
2019-04-05T09:52:55.372Z,8.3763
2019-04-05T09:52:57.383Z,7.9064
2019-04-05T09:52:59.372Z,7.7589
2019-04-05T09:53:02.478Z,7.6717
2019-04-05T09:53:04.343Z,7.5861
2019-04-05T09:53:06.330Z,7.7201
2019-04-05T09:53:08.341Z,7.7952
2019-04-05T09:53:09.391Z,8.0060
2019-04-05T09:53:13.344Z,8.0450
2019-04-05T09:53:15.359Z,7.8976
2019-04-05T09:53:17.373Z,7.9269
2019-04-05T09:53:19.622Z,7.8553
2019-04-05T09:53:22.353Z,7.7658
2019-04-05T09:53:24.387Z,7.5986
2019-04-05T09:53:25.359Z,7.6999
2019-04-05T09:53:28.348Z,7.7181
2019-04-05T09:53:30.362Z,7.3270
2019-04-05T09:53:33.358Z,6.9464
2019-04-05T09:53:35.339Z,6.5460
2019-04-05T09:53:37.357Z,6.5132
2019-04-05T09:53:39.332Z,6.3346
2019-04-05T09:53:41.352Z,6.2955
2019-04-05T09:53:44.363Z,6.4834
2019-04-05T09:53:46.349Z,6.9570
2019-04-05T09:53:48.349Z,7.2495
2019-04-05T09:53:50.362Z,7.3320
2019-04-05T09:53:53.338Z,7.3867
2019-04-05T09:53:55.135Z,7.1178
2019-04-05T09:53:57.398Z,7.1947
2019-04-05T09:53:59.355Z,8.0489
2019-04-05T09:54:01.343Z,8.0620
2019-04-05T09:54:04.348Z,7.3904
2019-04-05T09:54:06.379Z,7.3705
2019-04-05T09:54:08.379Z,7.4489
2019-04-05T09:54:10.358Z,7.5216
2019-04-05T09:54:12.392Z,7.5986
2019-04-05T09:54:15.369Z,7.7091
2019-04-05T09:54:17.352Z,7.7280
2019-04-05T09:54:19.352Z,7.8830
2019-04-05T09:54:21.345Z,8.0777
2019-04-05T09:54:24.338Z,8.1509
2019-04-05T09:54:26.352Z,8.1806
2019-04-05T09:54:28.420Z,8.2557
2019-04-05T09:54:30.369Z,8.1469
2019-04-05T09:54:32.352Z,7.8351
2019-04-05T09:54:35.384Z,7.6915
2019-04-05T09:54:36.352Z,7.3454
2019-04-05T09:54:39.366Z,7.2327
2019-04-05T09:54:41.389Z,6.8165
2019-04-05T09:54:43.403Z,6.4666
2019-04-05T09:54:46.394Z,6.0471
2019-04-05T09:54:48.438Z,5.3896
2019-04-05T09:54:50.364Z,4.9216
2019-04-05T09:54:52.371Z,4.5870
2019-04-05T09:54:55.355Z,4.9104
2019-04-05T09:54:57.349Z,5.2404
2019-04-05T09:54:59.364Z,5.3790
2019-04-05T09:55:01.373Z,5.7963
2019-04-05T09:55:03.363Z,6.0978
2019-04-05T09:55:06.340Z,6.4301
2019-04-05T09:55:08.378Z,7.0170
2019-04-05T09:55:10.339Z,7.2338
2019-04-05T09:55:12.344Z,7.3622
2019-04-05T09:55:14.374Z,7.4821
2019-04-05T09:55:17.368Z,7.7112
2019-04-05T09:55:19.362Z,7.8960
2019-04-05T09:55:21.368Z,7.8690
2019-04-05T09:55:23.355Z,8.2577
2019-04-05T09:55:26.348Z,8.2829
2019-04-05T09:55:28.375Z,8.2043
2019-04-05T09:55:30.368Z,8.0673
2019-04-05T09:55:32.357Z,7.8031
2019-04-05T09:55:34.359Z,7.5519
2019-04-05T09:55:37.352Z,7.5446
2019-04-05T09:55:39.389Z,7.1734
2019-04-05T09:55:41.376Z,6.8257
2019-04-05T09:55:43.364Z,6.5447
2019-04-05T09:55:44.378Z,6.3607
2019-04-05T09:55:48.370Z,6.2014
2019-04-05T09:55:50.370Z,5.6005
2019-04-05T09:55:52.336Z,5.4288
2019-04-05T09:55:54.390Z,5.4211
2019-04-05T09:55:57.349Z,5.5546
2019-04-05T09:55:59.242Z,5.6228
2019-04-05T09:56:01.089Z,5.8161
2019-04-05T09:56:02.366Z,5.9820
2019-04-05T09:56:05.349Z,6.3459
2019-04-05T09:56:08.353Z,6.2670
2019-04-05T09:56:10.360Z,6.8760
2019-04-05T09:56:12.408Z,7.3970
2019-04-05T09:56:14.359Z,7.6559
2019-04-05T09:56:16.379Z,7.6893
2019-04-05T09:56:19.345Z,7.6375
2019-04-05T09:56:21.362Z,7.7334
2019-04-05T09:56:23.353Z,7.6401
2019-04-05T09:56:25.386Z,7.4962
2019-04-05T09:56:28.354Z,7.2385
2019-04-05T09:56:30.134Z,6.8200
2019-04-05T09:56:31.923Z,6.7012
2019-04-05T09:56:34.009Z,6.5335
2019-04-05T09:56:36.229Z,6.4344
2019-04-05T09:56:38.470Z,6.3953
2019-04-05T09:56:41.380Z,6.5415
2019-04-05T09:56:43.467Z,6.6931
2019-04-05T09:56:45.383Z,6.8388
2019-04-05T09:56:47.383Z,6.9048
2019-04-05T09:56:50.379Z,6.8597
2019-04-05T09:56:52.361Z,6.9729
2019-04-05T09:56:56.645Z,7.0545
2019-04-05T09:56:59.382Z,7.2524
2019-04-05T09:57:01.386Z,7.1476
2019-04-05T09:57:03.379Z,7.1032
2019-04-05T09:57:05.385Z,7.1610
2019-04-05T09:57:07.371Z,7.1340
2019-04-05T09:57:10.343Z,7.1061
2019-04-05T09:57:12.358Z,7.4745
2019-04-05T09:57:14.349Z,7.7891
2019-04-05T09:57:16.354Z,8.0486
2019-04-05T09:57:18.412Z,8.0151
2019-04-05T09:57:21.415Z,7.9506
2019-04-05T09:57:23.353Z,7.7298
2019-04-05T09:57:25.367Z,7.6791
2019-04-05T09:57:27.362Z,7.5188
2019-04-05T09:57:30.363Z,7.6255
2019-04-05T09:57:32.354Z,7.5572
2019-04-05T09:57:34.343Z,7.4471
2019-04-05T09:57:36.349Z,7.5893
2019-04-05T09:57:38.377Z,7.7524
2019-04-05T09:57:41.398Z,7.8167
2019-04-05T09:57:43.389Z,7.4917
2019-04-05T09:57:45.350Z,7.3413
2019-04-05T09:57:47.384Z,7.2678
2019-04-05T09:57:49.348Z,7.0543
2019-04-05T09:57:52.366Z,7.0543
2019-04-05T09:57:54.373Z,6.6257
2019-04-05T09:57:55.359Z,6.4955
2019-04-05T09:57:58.390Z,6.4075
2019-04-05T09:58:01.382Z,5.9957
2019-04-05T09:58:03.370Z,5.9666
2019-04-05T09:58:05.353Z,5.8366
2019-04-05T09:58:09.963Z,5.6371
2019-04-05T09:58:12.349Z,5.1619
2019-04-05T09:58:14.381Z,5.3023
2019-04-05T09:58:16.358Z,5.5795
2019-04-05T09:58:18.350Z,5.9569
2019-04-05T09:58:20.374Z,6.4304
2019-04-05T09:58:23.350Z,6.8860
2019-04-05T09:58:25.413Z,7.1166
2019-04-05T09:58:27.349Z,7.1459
2019-04-05T09:58:28.362Z,7.6484
2019-04-05T09:58:32.365Z,7.8414
2019-04-05T09:58:34.349Z,7.9052
2019-04-05T09:58:36.358Z,7.8576
2019-04-05T09:58:38.475Z,7.6501
2019-04-05T09:58:40.351Z,7.3783
2019-04-05T09:58:43.348Z,7.1809
2019-04-05T09:58:45.373Z,7.1091
2019-04-05T09:58:47.349Z,7.0828
2019-04-05T09:58:49.496Z,7.0036
2019-04-05T09:58:51.368Z,6.8924
2019-04-05T09:58:53.349Z,6.9681
2019-04-05T09:58:56.419Z,6.9502
2019-04-05T09:58:58.372Z,6.8877
2019-04-05T09:59:00.378Z,6.9618
2019-04-05T09:59:03.421Z,7.1898
2019-04-05T09:59:05.409Z,7.9743
2019-04-05T09:59:07.372Z,8.7718
2019-04-05T09:59:09.352Z,9.3125
2019-04-05T09:59:11.422Z,9.5682
2019-04-05T09:59:14.452Z,9.4877
2019-04-05T09:59:16.386Z,9.3288
2019-04-05T09:59:18.365Z,9.1578
2019-04-05T09:59:20.389Z,9.0589
2019-04-05T09:59:22.378Z,9.0972
2019-04-05T09:59:25.399Z,8.8910
2019-04-05T09:59:26.397Z,8.4086
2019-04-05T09:59:29.367Z,8.2247
2019-04-05T09:59:31.383Z,7.5629
2019-04-05T09:59:34.358Z,7.2726
2019-04-05T09:59:36.360Z,6.9336
2019-04-05T09:59:38.343Z,6.7978
2019-04-05T09:59:40.359Z,6.5502
2019-04-05T09:59:42.403Z,6.4088
2019-04-05T09:59:45.378Z,6.5153
2019-04-05T09:59:46.368Z,6.6294
2019-04-05T09:59:49.363Z,6.7771
2019-04-05T09:59:51.363Z,6.9403
2019-04-05T09:59:53.362Z,7.0923
2019-04-05T09:59:56.339Z,7.1533
2019-04-05T09:59:58.352Z,6.9819
2019-04-05T10:00:00.360Z,6.7322
2019-04-05T10:00:02.400Z,6.6794
2019-04-05T10:00:05.369Z,7.1776
2019-04-05T10:00:07.360Z,7.4713
2019-04-05T10:00:09.365Z,7.5075
2019-04-05T10:00:11.353Z,7.5933
2019-04-05T10:00:12.411Z,7.5686
2019-04-05T10:00:16.373Z,7.5035
2019-04-05T10:00:18.417Z,6.8887
2019-04-05T10:00:20.395Z,7.0000
2019-04-05T10:00:22.358Z,7.2748
2019-04-05T10:00:24.383Z,7.2998
2019-04-05T10:00:27.410Z,7.2897
2019-04-05T10:00:29.382Z,7.0799
2019-04-05T10:00:31.392Z,7.1246
2019-04-05T10:00:33.363Z,7.3384
2019-04-05T10:00:36.361Z,7.4195
2019-04-05T10:00:38.361Z,7.4520
2019-04-05T10:00:40.365Z,7.6329
2019-04-05T10:00:42.387Z,7.6546
2019-04-05T10:00:44.389Z,7.6125
2019-04-05T10:00:47.535Z,7.7408
2019-04-05T10:00:49.402Z,7.8594
2019-04-05T10:00:51.372Z,8.0163
2019-04-05T10:00:53.439Z,8.0235
2019-04-05T10:00:55.455Z,8.0235
2019-04-05T10:00:57.379Z,7.8501
2019-04-05T10:01:00.382Z,7.8501
2019-04-05T10:01:02.480Z,8.2276
2019-04-05T10:01:04.375Z,8.8184
2019-04-05T10:01:06.358Z,9.1682
2019-04-05T10:01:09.359Z,9.4105
2019-04-05T10:01:10.358Z,9.7852
2019-04-05T10:01:13.387Z,9.9063
2019-04-05T10:01:15.369Z,10.2551
2019-04-05T10:01:18.350Z,10.3072
2019-04-05T10:01:20.368Z,9.9534
2019-04-05T10:01:22.379Z,9.4317
2019-04-05T10:01:24.353Z,8.7489
2019-04-05T10:01:26.359Z,8.1997
2019-04-05T10:01:28.388Z,8.0175
2019-04-05T10:01:31.388Z,7.8456
2019-04-05T10:01:33.335Z,7.5027
2019-04-05T10:01:35.362Z,7.2574
2019-04-05T10:01:37.393Z,7.0180
2019-04-05T10:01:39.379Z,6.9509
2019-04-05T10:01:42.364Z,6.9509
2019-04-05T10:01:44.368Z,6.9553
2019-04-05T10:01:46.667Z,6.9967
2019-04-05T10:01:49.373Z,7.2976
2019-04-05T10:01:51.398Z,7.3632
2019-04-05T10:01:53.365Z,7.3680
2019-04-05T10:01:55.364Z,7.4388
2019-04-05T10:01:57.425Z,7.5498
2019-04-05T10:02:00.343Z,7.5646
2019-04-05T10:02:02.379Z,7.7111
2019-04-05T10:02:04.396Z,8.1001
2019-04-05T10:02:06.408Z,8.1001
2019-04-05T10:02:08.349Z,8.2557
2019-04-05T10:02:11.371Z,8.2216
2019-04-05T10:02:13.412Z,8.2714
2019-04-05T10:02:15.388Z,8.2177
2019-04-05T10:02:16.360Z,8.2302
2019-04-05T10:02:20.395Z,8.1878
2019-04-05T10:02:22.183Z,8.1904
2019-04-05T10:02:22.997Z,8.0807
2019-04-05T10:02:26.401Z,8.0807
2019-04-05T10:02:31.493Z,7.8547
2019-04-05T10:02:34.470Z,7.7114
2019-04-05T10:02:35.383Z,7.4425
2019-04-05T10:02:37.340Z,7.2767
2019-04-05T10:02:39.353Z,7.1745
2019-04-05T10:02:42.439Z,7.0850
2019-04-05T10:02:44.349Z,7.1188
2019-04-05T10:02:45.482Z,7.1188
2019-04-05T10:02:48.359Z,7.2945
2019-04-05T10:02:51.374Z,7.1495
2019-04-05T10:02:53.144Z,7.1329
2019-04-05T10:02:54.930Z,6.9897
2019-04-05T10:02:57.065Z,6.9974
2019-04-05T10:02:59.243Z,6.8803
2019-04-05T10:03:02.398Z,6.7052
2019-04-05T10:03:04.383Z,6.3688
2019-04-05T10:03:06.408Z,6.3166
2019-04-05T10:03:08.383Z,6.2378
2019-04-05T10:03:09.382Z,6.1540
2019-04-05T10:03:13.379Z,6.1951
2019-04-05T10:03:15.353Z,6.7321
2019-04-05T10:03:17.364Z,6.9258
2019-04-05T10:03:19.537Z,6.8029
2019-04-05T10:03:22.400Z,6.5732
2019-04-05T10:03:24.403Z,6.1043
2019-04-05T10:03:26.358Z,5.8873
2019-04-05T10:03:28.353Z,5.7261
2019-04-05T10:03:30.359Z,5.7146
2019-04-05T10:03:33.370Z,6.1674
2019-04-05T10:03:35.398Z,6.6143
2019-04-05T10:03:37.380Z,6.7188
2019-04-05T10:03:39.349Z,7.1788
2019-04-05T10:03:41.363Z,7.7365
2019-04-05T10:03:44.349Z,8.2649
2019-04-05T10:03:46.363Z,8.8572
2019-04-05T10:03:48.349Z,9.2156
2019-04-05T10:03:50.393Z,9.4849
2019-04-05T10:03:53.359Z,9.6196
2019-04-05T10:03:55.349Z,10.0697
2019-04-05T10:03:57.403Z,10.1791
2019-04-05T10:03:59.379Z,10.2278
2019-04-05T10:04:01.381Z,10.1817
2019-04-05T10:04:04.343Z,10.0216
2019-04-05T10:04:06.389Z,10.2570
2019-04-05T10:04:08.350Z,10.2664
2019-04-05T10:04:10.452Z,10.1921
2019-04-05T10:04:12.411Z,10.0227
2019-04-05T10:04:15.402Z,9.9371
2019-04-05T10:04:17.383Z,9.8146
2019-04-05T10:04:18.385Z,9.6837
2019-04-05T10:04:20.368Z,9.7048
2019-04-05T10:04:24.351Z,9.4637
2019-04-05T10:04:26.176Z,8.7494
2019-04-05T10:04:30.902Z,8.6775
2019-04-05T10:04:33.383Z,8.0936
2019-04-05T10:04:35.395Z,7.8059
2019-04-05T10:04:37.336Z,7.3354
2019-04-05T10:04:39.363Z,7.1588
2019-04-05T10:04:41.334Z,7.2147
2019-04-05T10:04:43.359Z,7.2275
2019-04-05T10:04:46.343Z,7.1895
2019-04-05T10:04:48.373Z,7.1290
2019-04-05T10:04:50.348Z,7.0499
2019-04-05T10:04:52.367Z,7.0771
2019-04-05T10:04:54.373Z,7.0439
2019-04-05T10:04:56.394Z,6.9517
2019-04-05T10:04:59.430Z,7.2309
2019-04-05T10:05:01.346Z,7.4238
2019-04-05T10:05:03.427Z,7.2554
2019-04-05T10:05:06.419Z,7.0765
2019-04-05T10:05:08.388Z,6.7133
2019-04-05T10:05:10.373Z,6.6248
2019-04-05T10:05:12.433Z,6.7138
2019-04-05T10:05:14.378Z,6.7766
2019-04-05T10:05:17.372Z,6.7775
2019-04-05T10:05:19.343Z,6.8169
2019-04-05T10:05:21.399Z,6.7086
2019-04-05T10:05:23.642Z,6.8782
2019-04-05T10:05:26.370Z,6.9077
2019-04-05T10:05:28.405Z,6.7830
2019-04-05T10:05:30.442Z,7.0415
2019-04-05T10:05:32.400Z,7.0635
2019-04-05T10:05:34.388Z,7.1016
2019-04-05T10:05:37.373Z,7.2575
2019-04-05T10:05:39.365Z,7.6241
2019-04-05T10:05:41.342Z,7.8553
2019-04-05T10:05:43.359Z,8.1970
2019-04-05T10:05:45.375Z,8.4155
2019-04-05T10:05:48.339Z,8.5989
2019-04-05T10:05:49.351Z,8.6154
2019-04-05T10:05:52.349Z,8.6119
2019-04-05T10:05:54.362Z,8.6818
2019-04-05T10:05:56.343Z,8.7281
2019-04-05T10:05:59.374Z,8.9380
2019-04-05T10:06:01.375Z,9.5464
2019-04-05T10:06:03.438Z,9.5664
2019-04-05T10:06:05.379Z,9.6424
2019-04-05T10:06:08.349Z,9.8081
2019-04-05T10:06:10.383Z,9.9008
2019-04-05T10:06:12.398Z,9.8189
2019-04-05T10:06:14.387Z,9.6049
2019-04-05T10:06:16.379Z,9.4085
2019-04-05T10:06:19.364Z,9.1234
2019-04-05T10:06:21.444Z,8.5837
2019-04-05T10:06:23.383Z,8.1712
2019-04-05T10:06:25.431Z,7.9167
2019-04-05T10:06:27.384Z,7.7879
2019-04-05T10:06:30.398Z,7.8627
2019-04-05T10:06:32.358Z,7.8097
2019-04-05T10:06:34.362Z,7.8877
2019-04-05T10:06:36.350Z,7.8907
2019-04-05T10:06:39.356Z,7.8653
2019-04-05T10:06:41.369Z,8.2557
2019-04-05T10:06:43.372Z,8.2387
2019-04-05T10:06:45.401Z,8.3169
2019-04-05T10:06:47.398Z,8.4547
2019-04-05T10:06:50.352Z,8.5730
2019-04-05T10:06:52.392Z,8.7933
2019-04-05T10:06:54.379Z,8.8404
2019-04-05T10:06:56.383Z,8.7458
2019-04-05T10:06:58.353Z,8.5723
2019-04-05T10:07:00.343Z,8.5262
2019-04-05T10:07:03.378Z,8.6285
2019-04-05T10:07:05.359Z,8.6250
2019-04-05T10:07:07.402Z,8.5391
2019-04-05T10:07:10.342Z,8.3146
2019-04-05T10:07:12.356Z,8.1402
2019-04-05T10:07:14.363Z,8.0519
2019-04-05T10:07:16.404Z,8.1769
2019-04-05T10:07:18.376Z,8.3075
2019-04-05T10:07:21.369Z,8.5772
2019-04-05T10:07:23.338Z,8.7021
2019-04-05T10:07:25.389Z,8.9939
2019-04-05T10:07:27.417Z,9.5177
2019-04-05T10:07:29.404Z,9.7651
2019-04-05T10:07:32.349Z,9.8120
2019-04-05T10:07:34.384Z,9.8420
2019-04-05T10:07:36.359Z,9.5989
2019-04-05T10:07:48.514Z,9.1465
2019-04-05T10:07:54.909Z,8.7074
2019-04-05T10:07:55.205Z,7.6905
2019-04-05T10:07:58.353Z,8.0018
2019-04-05T10:08:00.362Z,7.6977
2019-04-05T10:08:02.393Z,7.7011
2019-04-05T10:08:04.358Z,7.5760
2019-04-05T10:08:06.366Z,7.5004
2019-04-05T10:08:08.378Z,7.2874
2019-04-05T10:08:10.379Z,7.1752
2019-04-05T10:08:12.455Z,7.2728
2019-04-05T10:08:14.403Z,7.3645
2019-04-05T10:08:16.347Z,7.2559
2019-04-05T10:08:17.370Z,7.3202
2019-04-05T10:08:20.338Z,7.3635
2019-04-05T10:08:23.395Z,7.3635
2019-04-05T10:08:25.343Z,7.0723
2019-04-05T10:08:27.429Z,6.8881
2019-04-05T10:08:29.378Z,6.7991
2019-04-05T10:08:31.382Z,6.7425
2019-04-05T10:08:34.348Z,6.7528
2019-04-05T10:08:36.359Z,6.7327
2019-04-05T10:08:38.352Z,6.5684
2019-04-05T10:08:40.405Z,6.6640
2019-04-05T10:08:43.373Z,6.7768
2019-04-05T10:08:45.386Z,6.8997
2019-04-05T10:08:47.379Z,7.0891
2019-04-05T10:08:49.372Z,7.0981
2019-04-05T10:08:51.358Z,6.9448
2019-04-05T10:08:53.373Z,6.6906
2019-04-05T10:08:56.411Z,6.3793
2019-04-05T10:08:58.368Z,5.9858
2019-04-05T10:09:00.380Z,5.9497
2019-04-05T10:09:02.418Z,5.9917
2019-04-05T10:09:04.370Z,5.9430
2019-04-05T10:09:07.379Z,5.8038
2019-04-05T10:09:09.461Z,5.8845
2019-04-05T10:09:11.415Z,5.9583
2019-04-05T10:09:14.388Z,6.1247
2019-04-05T10:09:16.342Z,6.3386
2019-04-05T10:09:18.418Z,6.4450
2019-04-05T10:09:20.364Z,6.4221
2019-04-05T10:09:22.385Z,6.4649
2019-04-05T10:09:25.404Z,6.4097
2019-04-05T10:09:27.399Z,6.6199
2019-04-05T10:09:29.398Z,6.8062
2019-04-05T10:09:31.455Z,6.9633
2019-04-05T10:09:34.345Z,6.9633
2019-04-05T10:09:36.180Z,7.0322
2019-04-05T10:09:37.988Z,7.1507
2019-04-05T10:09:40.379Z,7.2611
2019-04-05T10:09:42.372Z,7.5015
2019-04-05T10:09:45.348Z,7.7860
2019-04-05T10:09:50.154Z,8.0450
2019-04-05T10:09:52.363Z,7.7561
2019-04-05T10:09:54.383Z,7.5288
2019-04-05T10:09:56.352Z,7.4512
2019-04-05T10:09:57.376Z,7.2821
2019-04-05T10:10:00.345Z,7.1631
2019-04-05T10:10:02.355Z,6.9989
2019-04-05T10:10:04.382Z,6.7940
2019-04-05T10:10:07.376Z,6.6513
2019-04-05T10:10:09.394Z,6.4436
2019-04-05T10:10:11.381Z,6.3146
2019-04-05T10:10:13.383Z,6.0455
2019-04-05T10:10:16.363Z,5.7044
2019-04-05T10:10:18.359Z,5.1001
2019-04-05T10:10:20.361Z,4.9936
2019-04-05T10:10:22.389Z,5.1206
2019-04-05T10:10:24.366Z,5.1161
2019-04-05T10:10:27.392Z,5.0685
2019-04-05T10:10:29.384Z,4.7594
2019-04-05T10:10:31.370Z,4.4879
2019-04-05T10:10:32.382Z,4.5983
2019-04-05T10:10:35.348Z,4.6443
2019-04-05T10:10:38.408Z,4.9028
2019-04-05T10:10:40.391Z,5.0402
2019-04-05T10:10:42.374Z,5.0809
2019-04-05T10:10:44.364Z,5.0744
2019-04-05T10:10:46.365Z,5.0805
2019-04-05T10:10:49.400Z,5.0519
2019-04-05T10:10:51.373Z,5.1586
2019-04-05T10:10:53.424Z,5.1709
2019-04-05T10:10:55.392Z,5.4317
2019-04-05T10:10:58.360Z,5.6591
2019-04-05T10:11:00.382Z,6.2645
2019-04-05T10:11:02.339Z,6.5282
2019-04-05T10:11:04.378Z,6.5090
2019-04-05T10:11:06.429Z,6.6217
2019-04-05T10:11:08.352Z,6.5574
2019-04-05T10:11:11.346Z,6.5462
2019-04-05T10:11:12.380Z,6.7949
2019-04-05T10:11:15.343Z,6.8230
2019-04-05T10:11:18.333Z,6.8527
2019-04-05T10:11:20.344Z,6.9117
2019-04-05T10:11:22.368Z,7.1676
2019-04-05T10:11:24.355Z,7.4738
2019-04-05T10:11:26.372Z,7.4917
2019-04-05T10:11:29.356Z,7.3832
2019-04-05T10:11:31.342Z,7.3434
2019-04-05T10:11:33.340Z,7.2456
2019-04-05T10:11:35.368Z,7.1237
2019-04-05T10:11:37.376Z,6.9271
2019-04-05T10:11:40.374Z,6.5915
2019-04-05T10:11:42.394Z,6.2116
2019-04-05T10:11:44.393Z,5.9328
2019-04-05T10:11:46.352Z,5.7932
2019-04-05T10:11:49.379Z,5.6228
2019-04-05T10:11:51.343Z,5.7878
2019-04-05T10:11:53.389Z,5.8772
2019-04-05T10:11:55.401Z,5.8739
2019-04-05T10:11:56.381Z,5.9499
2019-04-05T10:12:00.343Z,5.9691
2019-04-05T10:12:02.362Z,5.8087
2019-04-05T10:12:04.363Z,5.9366
2019-04-05T10:12:06.369Z,6.0106
2019-04-05T10:12:08.365Z,6.0691
2019-04-05T10:12:11.343Z,6.0922
2019-04-05T10:12:13.389Z,6.2020
2019-04-05T10:12:15.369Z,6.4510
2019-04-05T10:12:17.339Z,6.7587
2019-04-05T10:12:20.378Z,6.8565
2019-04-05T10:12:22.373Z,6.8545
2019-04-05T10:12:24.353Z,6.9364
2019-04-05T10:12:26.344Z,6.9333
2019-04-05T10:12:28.352Z,6.8747
2019-04-05T10:12:31.383Z,6.8246
2019-04-05T10:12:33.371Z,7.0063
2019-04-05T10:12:35.354Z,7.2663
2019-04-05T10:12:37.381Z,7.7014
2019-04-05T10:12:40.357Z,7.8596
2019-04-05T10:12:42.163Z,7.7273
2019-04-05T10:12:44.391Z,7.9471
2019-04-05T10:12:45.392Z,8.1382
2019-04-05T10:12:48.377Z,8.2212
2019-04-05T10:12:51.348Z,7.9547
2019-04-05T10:12:53.343Z,7.4895
2019-04-05T10:12:55.391Z,7.0867
2019-04-05T10:12:57.348Z,6.6535
2019-04-05T10:12:58.363Z,6.2256
2019-04-05T10:13:02.383Z,6.0330
2019-04-05T10:13:04.362Z,5.7828
2019-04-05T10:13:06.343Z,5.6299
2019-04-05T10:13:09.658Z,5.5736
2019-04-05T10:13:12.387Z,5.1811
2019-04-05T10:13:14.373Z,5.1259
2019-04-05T10:13:16.354Z,5.0983
2019-04-05T10:13:18.418Z,4.9396
2019-04-05T10:13:20.349Z,4.7108
2019-04-05T10:13:22.418Z,4.6271
2019-04-05T10:13:24.369Z,4.7485
2019-04-05T10:13:26.343Z,4.7002
2019-04-05T10:13:28.372Z,4.4988
2019-04-05T10:13:30.399Z,4.3008
2019-04-05T10:13:33.365Z,4.1122
2019-04-05T10:13:35.351Z,4.2263
2019-04-05T10:13:37.403Z,4.5677
2019-04-05T10:13:39.359Z,4.8209
2019-04-05T10:13:42.379Z,5.0501
2019-04-05T10:13:44.383Z,5.1764
2019-04-05T10:13:45.368Z,5.3585
2019-04-05T10:13:48.359Z,5.3954
2019-04-05T10:13:50.362Z,5.3790
2019-04-05T10:13:53.364Z,5.3937
2019-04-05T10:13:55.349Z,5.6475
2019-04-05T10:13:57.398Z,5.6427
2019-04-05T10:13:59.381Z,5.4359
2019-04-05T10:14:01.361Z,5.1576
2019-04-05T10:14:04.364Z,5.1219
2019-04-05T10:14:06.369Z,5.2401
2019-04-05T10:14:08.368Z,5.4407
2019-04-05T10:14:10.351Z,5.7627
2019-04-05T10:14:13.369Z,5.9595
2019-04-05T10:14:15.392Z,6.0088
2019-04-05T10:14:17.359Z,5.8180
2019-04-05T10:14:19.414Z,5.6759
2019-04-05T10:14:21.349Z,5.7854
2019-04-05T10:14:24.367Z,5.8758
2019-04-05T10:14:26.358Z,6.0308
2019-04-05T10:14:27.441Z,6.0821
2019-04-05T10:14:30.352Z,6.1440
2019-04-05T10:14:33.344Z,6.5485
2019-04-05T10:14:35.144Z,6.5199
2019-04-05T10:14:36.949Z,6.3356
2019-04-05T10:14:39.008Z,6.2869
2019-04-05T10:14:41.321Z,6.3085
2019-04-05T10:14:44.388Z,6.1384
2019-04-05T10:14:46.375Z,5.5995
2019-04-05T10:14:48.362Z,5.5399
2019-04-05T10:14:50.338Z,5.3877
2019-04-05T10:14:52.402Z,5.2435
2019-04-05T10:14:55.361Z,5.0030
2019-04-05T10:14:57.355Z,4.5273
2019-04-05T10:14:59.348Z,4.4578
2019-04-05T10:15:00.363Z,4.4782
2019-04-05T10:15:03.368Z,4.5279
2019-04-05T10:15:06.354Z,4.7463
2019-04-05T10:15:07.384Z,4.9261
2019-04-05T10:15:10.373Z,4.9881
2019-04-05T10:15:12.342Z,4.9994
2019-04-05T10:15:15.366Z,4.9661
2019-04-05T10:15:17.359Z,5.1607
2019-04-05T10:15:21.713Z,5.5425
2019-04-05T10:15:24.389Z,5.8339
2019-04-05T10:15:26.372Z,5.8440
2019-04-05T10:15:28.361Z,5.7796
2019-04-05T10:15:30.402Z,5.7218
2019-04-05T10:15:32.349Z,5.6276
2019-04-05T10:15:34.368Z,5.6098
2019-04-05T10:15:37.386Z,5.7293
2019-04-05T10:15:39.373Z,5.7293
2019-04-05T10:15:41.374Z,5.4651
2019-04-05T10:15:43.380Z,5.2575
2019-04-05T10:15:46.344Z,5.0280
2019-04-05T10:15:48.421Z,4.8211
2019-04-05T10:15:50.370Z,4.8768
2019-04-05T10:15:52.352Z,4.7909
2019-04-05T10:15:54.383Z,4.6587
2019-04-05T10:15:57.366Z,4.6081
2019-04-05T10:15:59.379Z,5.0867
2019-04-05T10:16:01.343Z,5.4294
2019-04-05T10:16:03.375Z,5.6621
2019-04-05T10:16:05.507Z,5.8903
2019-04-05T10:16:08.446Z,6.5894
2019-04-05T10:16:10.408Z,6.8495
2019-04-05T10:16:12.395Z,6.8641
2019-04-05T10:16:14.567Z,6.8864
2019-04-05T10:16:16.581Z,6.9888
2019-04-05T10:16:18.620Z,6.9774
2019-04-05T10:16:21.750Z,6.8152
2019-04-05T10:16:24.463Z,6.4065
2019-04-05T10:16:26.528Z,6.0592
2019-04-05T10:16:28.403Z,5.8661
2019-04-05T10:16:30.353Z,5.5710
2019-04-05T10:16:32.391Z,5.4900
2019-04-05T10:16:34.369Z,5.2702
2019-04-05T10:16:36.389Z,5.3337
2019-04-05T10:16:39.427Z,5.5063
2019-04-05T10:16:41.357Z,5.7755
2019-04-05T10:16:42.340Z,6.0716
2019-04-05T10:16:45.384Z,6.3007
2019-04-05T10:16:48.349Z,6.5524
2019-04-05T10:16:50.133Z,6.5193
2019-04-05T10:16:51.999Z,6.5296
2019-04-05T10:16:53.999Z,6.5657
2019-04-05T10:16:56.201Z,6.5894
2019-04-05T10:16:58.423Z,6.4642
2019-04-05T10:17:01.349Z,6.3464
2019-04-05T10:17:03.363Z,6.2821
2019-04-05T10:17:05.390Z,6.0665
2019-04-05T10:17:07.393Z,5.9528
2019-04-05T10:17:10.369Z,5.9535
2019-04-05T10:17:11.368Z,6.2939
2019-04-05T10:17:14.363Z,6.4658
2019-04-05T10:17:16.350Z,6.6160
2019-04-05T10:17:18.395Z,6.5776
2019-04-05T10:17:21.422Z,6.4019
2019-04-05T10:17:23.354Z,6.1557
2019-04-05T10:17:25.348Z,6.0518
2019-04-05T10:17:27.383Z,6.1524
2019-04-05T10:17:30.393Z,6.5339
2019-04-05T10:17:32.476Z,6.9150
2019-04-05T10:17:34.445Z,7.3406
2019-04-05T10:17:36.548Z,7.5491
2019-04-05T10:17:38.510Z,7.6504
2019-04-05T10:17:41.348Z,7.5914
2019-04-05T10:17:43.389Z,7.1764
2019-04-05T10:17:45.399Z,6.8500
2019-04-05T10:17:47.395Z,6.5285
2019-04-05T10:17:49.343Z,6.0819
2019-04-05T10:17:52.493Z,5.7731
2019-04-05T10:17:54.352Z,5.5324
2019-04-05T10:17:56.369Z,5.3874
2019-04-05T10:17:58.356Z,5.5816
2019-04-05T10:18:00.381Z,5.5944
2019-04-05T10:18:03.358Z,5.6476
2019-04-05T10:18:05.490Z,5.6430
2019-04-05T10:18:07.343Z,5.8482
2019-04-05T10:18:08.365Z,6.0726
2019-04-05T10:18:12.418Z,6.1388
2019-04-05T10:18:14.355Z,5.9253
2019-04-05T10:18:16.392Z,5.6930
2019-04-05T10:18:18.414Z,5.5721
2019-04-05T10:18:20.370Z,5.6354
2019-04-05T10:18:23.348Z,5.6141
2019-04-05T10:18:25.338Z,5.3525
2019-04-05T10:18:27.381Z,5.1274
2019-04-05T10:18:29.665Z,5.0312
2019-04-05T10:18:32.339Z,5.0010
2019-04-05T10:18:34.398Z,4.8926
2019-04-05T10:18:36.368Z,4.7865
2019-04-05T10:18:38.349Z,4.6948
2019-04-05T10:18:40.399Z,4.8525
2019-04-05T10:18:42.379Z,4.9749
2019-04-05T10:18:45.332Z,5.1664
2019-04-05T10:18:47.372Z,5.1266
2019-04-05T10:18:51.412Z,4.9408
2019-04-05T10:18:54.347Z,4.7128
2019-04-05T10:18:56.349Z,4.4781
2019-04-05T10:18:58.373Z,4.2742
2019-04-05T10:19:00.352Z,4.2436
2019-04-05T10:19:02.359Z,4.2544
2019-04-05T10:19:04.398Z,4.2049
2019-04-05T10:19:07.368Z,4.2143
2019-04-05T10:19:09.403Z,4.4257
2019-04-05T10:19:11.399Z,4.6893
2019-04-05T10:19:13.364Z,4.8432
2019-04-05T10:19:16.362Z,4.9093
2019-04-05T10:19:18.402Z,5.0544
2019-04-05T10:19:20.401Z,5.4389
2019-04-05T10:19:22.379Z,5.7325
2019-04-05T10:19:25.472Z,5.9016
2019-04-05T10:19:27.278Z,5.7747
2019-04-05T10:19:29.068Z,5.4988
2019-04-05T10:19:31.359Z,5.2157
2019-04-05T10:19:33.384Z,5.0027
2019-04-05T10:19:48.853Z,5.0701
2019-04-05T10:19:49.694Z,5.5381
2019-04-05T10:19:50.616Z,6.2797